createdAt,value
2019-01-13T00:00:03.198Z,431.00
2019-01-13T00:01:03.202Z,432.31
2019-01-13T00:02:03.166Z,432.19
2019-01-13T00:03:03.165Z,431.73
2019-01-13T00:04:03.150Z,431.88
2019-01-13T00:05:03.151Z,431.93
2019-01-13T00:06:03.133Z,430.87
2019-01-13T00:07:03.129Z,431.26
2019-01-13T00:08:03.109Z,431.60
2019-01-13T00:09:03.111Z,431.79
2019-01-13T00:10:03.093Z,432.46
2019-01-13T00:11:03.076Z,431.47
2019-01-13T00:12:03.070Z,432.87
2019-01-13T00:13:03.065Z,431.17
2019-01-13T00:14:03.044Z,432.17
2019-01-13T00:15:03.055Z,431.73
2019-01-13T00:16:03.028Z,431.42
2019-01-13T00:17:03.012Z,432.09
2019-01-13T00:18:03.011Z,431.46
2019-01-13T00:19:02.993Z,431.76
2019-01-13T00:20:02.982Z,431.48
2019-01-13T00:21:02.981Z,431.82
2019-01-13T00:22:02.965Z,430.30
2019-01-13T00:23:02.954Z,431.85
2019-01-13T00:24:02.959Z,432.00
2019-01-13T00:25:02.938Z,431.61
2019-01-13T00:26:02.926Z,432.21
2019-01-13T00:27:02.910Z,431.73
2019-01-13T00:28:02.916Z,431.99
2019-01-13T00:29:02.894Z,431.67
2019-01-13T00:30:02.882Z,431.09
2019-01-13T00:31:02.871Z,432.05
2019-01-13T00:32:02.862Z,431.50
2019-01-13T00:33:02.841Z,432.04
2019-01-13T00:34:02.882Z,431.67
2019-01-13T00:35:02.834Z,432.23
2019-01-13T00:36:02.820Z,432.14
2019-01-13T00:37:02.828Z,431.79
2019-01-13T00:38:02.796Z,430.87
2019-01-13T00:39:02.785Z,431.03
2019-01-13T00:40:02.774Z,431.55
2019-01-13T00:41:02.760Z,431.45
2019-01-13T00:42:02.797Z,432.49
2019-01-13T00:43:02.748Z,431.13
2019-01-13T00:44:02.744Z,430.94
2019-01-13T00:45:02.721Z,430.57
2019-01-13T00:46:02.712Z,431.55
2019-01-13T00:47:02.701Z,431.94
2019-01-13T00:48:02.695Z,432.51
2019-01-13T00:49:02.684Z,431.76
2019-01-13T00:50:02.675Z,430.99
2019-01-13T00:51:02.707Z,431.91
2019-01-13T00:52:02.647Z,431.69
2019-01-13T00:53:02.646Z,432.48
2019-01-13T00:54:02.633Z,430.94
2019-01-13T00:55:02.624Z,430.44
2019-01-13T00:56:02.611Z,431.70
2019-01-13T00:57:02.601Z,431.71
2019-01-13T00:58:02.590Z,431.86
2019-01-13T00:59:02.579Z,432.52
2019-01-13T01:00:02.572Z,432.36
2019-01-13T01:01:02.577Z,432.38
2019-01-13T01:02:02.567Z,431.97
2019-01-13T01:03:02.535Z,431.42
2019-01-13T01:04:02.528Z,431.46
2019-01-13T01:05:02.514Z,432.19
2019-01-13T01:06:02.505Z,432.30
2019-01-13T01:07:02.499Z,431.88
2019-01-13T01:08:02.482Z,431.57
2019-01-13T01:09:02.476Z,430.26
2019-01-13T01:10:02.462Z,431.83
2019-01-13T01:11:03.402Z,431.63
2019-01-13T01:12:02.450Z,431.99
2019-01-13T01:13:02.435Z,432.70
2019-01-13T01:14:02.420Z,432.57
2019-01-13T01:15:02.412Z,431.23
2019-01-13T01:16:02.408Z,431.90
2019-01-13T01:17:02.391Z,431.40
2019-01-13T01:18:02.376Z,431.44
2019-01-13T01:19:02.371Z,432.02
2019-01-13T01:20:02.360Z,431.28
2019-01-13T01:21:02.343Z,431.86
2019-01-13T01:22:02.335Z,432.32
2019-01-13T01:23:02.374Z,430.64
2019-01-13T01:24:02.318Z,431.83
2019-01-13T01:25:02.318Z,431.55
2019-01-13T01:26:02.292Z,430.57
2019-01-13T01:27:02.291Z,432.09
2019-01-13T01:28:02.278Z,432.68
2019-01-13T01:29:02.260Z,430.64
2019-01-13T01:30:02.249Z,432.10
2019-01-13T01:31:02.236Z,431.27
2019-01-13T01:32:02.230Z,431.84
2019-01-13T01:33:02.222Z,431.49
2019-01-13T01:34:02.211Z,431.83
2019-01-13T01:35:02.208Z,432.03
2019-01-13T01:36:02.188Z,430.70
2019-01-13T01:37:02.176Z,431.56
2019-01-13T01:38:02.167Z,432.32
2019-01-13T01:39:02.155Z,431.39
2019-01-13T01:40:02.153Z,432.13
2019-01-13T01:41:02.139Z,430.76
2019-01-13T01:42:02.156Z,431.38
2019-01-13T01:43:02.118Z,432.70
2019-01-13T01:44:02.105Z,431.34
2019-01-13T01:45:02.094Z,431.89
2019-01-13T01:46:02.084Z,433.91
2019-01-13T01:47:02.069Z,431.78
2019-01-13T01:48:02.062Z,431.02
2019-01-13T01:49:02.055Z,431.40
2019-01-13T01:50:02.039Z,431.60
2019-01-13T01:51:02.035Z,431.47
2019-01-13T01:52:02.025Z,430.85
2019-01-13T01:53:02.141Z,432.10
2019-01-13T01:54:02.012Z,431.38
2019-01-13T01:55:01.989Z,431.25
2019-01-13T01:56:01.985Z,431.65
2019-01-13T01:57:01.993Z,431.31
2019-01-13T01:58:01.964Z,431.73
2019-01-13T01:59:01.948Z,431.69
2019-01-13T02:00:01.962Z,431.30
2019-01-13T02:01:01.935Z,431.09
2019-01-13T02:02:01.931Z,431.27
2019-01-13T02:03:01.910Z,431.72
2019-01-13T02:04:01.939Z,431.73
2019-01-13T02:05:01.915Z,429.59
2019-01-13T02:06:01.906Z,432.45
2019-01-13T02:07:01.862Z,431.34
2019-01-13T02:08:01.856Z,431.69
2019-01-13T02:09:01.844Z,432.01
2019-01-13T02:10:01.840Z,432.09
2019-01-13T02:11:01.823Z,431.49
2019-01-13T02:12:01.834Z,432.07
2019-01-13T02:13:01.812Z,433.08
2019-01-13T02:14:01.823Z,431.39
2019-01-13T02:15:01.861Z,431.43
2019-01-13T02:16:01.767Z,431.87
2019-01-13T02:17:01.766Z,432.10
2019-01-13T02:18:01.754Z,431.58
2019-01-13T02:19:01.729Z,431.50
2019-01-13T02:20:01.739Z,431.49
2019-01-13T02:21:01.718Z,430.93
2019-01-13T02:22:01.704Z,430.54
2019-01-13T02:23:01.700Z,431.13
2019-01-13T02:24:01.690Z,431.76
2019-01-13T02:25:01.670Z,431.41
2019-01-13T02:26:01.662Z,431.31
2019-01-13T02:27:01.657Z,431.22
2019-01-13T02:28:01.642Z,431.79
2019-01-13T02:29:01.632Z,431.64
2019-01-13T02:30:01.636Z,432.40
2019-01-13T02:31:01.619Z,431.64
2019-01-13T02:32:01.603Z,431.76
2019-01-13T02:33:01.602Z,432.07
2019-01-13T02:34:01.589Z,431.82
2019-01-13T02:35:01.570Z,431.46
2019-01-13T02:36:01.558Z,431.54
2019-01-13T02:37:01.550Z,431.20
2019-01-13T02:38:01.542Z,430.87
2019-01-13T02:39:01.538Z,432.12
2019-01-13T02:40:01.526Z,431.50
2019-01-13T02:41:01.506Z,431.19
2019-01-13T02:42:01.499Z,430.82
2019-01-13T02:43:01.494Z,431.83
2019-01-13T02:44:01.482Z,431.33
2019-01-13T02:45:01.487Z,430.51
2019-01-13T02:46:01.456Z,431.73
2019-01-13T02:47:01.447Z,432.40
2019-01-13T02:48:01.435Z,430.93
2019-01-13T02:49:01.439Z,431.99
2019-01-13T02:50:01.416Z,431.23
2019-01-13T02:51:01.401Z,431.19
2019-01-13T02:52:01.395Z,431.51
2019-01-13T02:53:01.383Z,430.72
2019-01-13T02:54:01.373Z,430.92
2019-01-13T02:55:01.371Z,432.48
2019-01-13T02:56:01.352Z,431.27
2019-01-13T02:57:01.335Z,433.15
2019-01-13T02:58:01.336Z,431.12
2019-01-13T02:59:01.320Z,430.40
2019-01-13T03:00:01.316Z,431.63
2019-01-13T03:01:01.301Z,431.92
2019-01-13T03:02:01.289Z,431.19
2019-01-13T03:03:01.295Z,431.64
2019-01-13T03:04:01.264Z,431.15
2019-01-13T03:05:01.275Z,431.33
2019-01-13T03:06:01.249Z,430.42
2019-01-13T03:07:01.243Z,431.99
2019-01-13T03:08:01.224Z,431.34
2019-01-13T03:09:01.226Z,431.60
2019-01-13T03:10:01.204Z,431.79
2019-01-13T03:11:01.212Z,431.42
2019-01-13T03:12:01.188Z,431.92
2019-01-13T03:13:01.247Z,430.55
2019-01-13T03:14:01.166Z,431.87
2019-01-13T03:15:01.164Z,431.44
2019-01-13T03:16:01.141Z,431.53
2019-01-13T03:17:01.137Z,432.38
2019-01-13T03:18:01.127Z,431.92
2019-01-13T03:19:01.108Z,431.49
2019-01-13T03:20:01.100Z,431.59
2019-01-13T03:21:01.094Z,431.68
2019-01-13T03:22:01.078Z,430.71
2019-01-13T03:23:01.066Z,431.25
2019-01-13T03:24:01.054Z,432.61
2019-01-13T03:25:01.052Z,431.82
2019-01-13T03:26:01.038Z,430.76
2019-01-13T03:27:01.033Z,431.23
2019-01-13T03:28:01.034Z,431.70
2019-01-13T03:29:01.002Z,432.35
2019-01-13T03:30:00.996Z,432.90
2019-01-13T03:31:11.081Z,430.66
2019-01-13T03:32:01.973Z,431.68
2019-01-13T03:33:00.965Z,431.72
2019-01-13T03:34:00.959Z,432.42
2019-01-13T03:35:00.945Z,431.26
2019-01-13T03:36:00.931Z,429.38
2019-01-13T03:37:00.919Z,431.75
2019-01-13T03:38:00.908Z,430.87
2019-01-13T03:39:00.900Z,431.77
2019-01-13T03:40:00.891Z,430.63
2019-01-13T03:41:00.880Z,431.12
2019-01-13T03:42:00.885Z,431.46
2019-01-13T03:43:00.881Z,432.01
2019-01-13T03:44:00.846Z,431.14
2019-01-13T03:45:00.835Z,432.00
2019-01-13T03:46:00.827Z,431.20
2019-01-13T03:47:00.819Z,430.41
2019-01-13T03:48:00.815Z,431.95
2019-01-13T03:49:00.795Z,430.98
2019-01-13T03:50:00.781Z,432.49
2019-01-13T03:51:00.770Z,430.66
2019-01-13T03:52:00.762Z,431.46
2019-01-13T03:53:00.751Z,431.03
2019-01-13T03:54:00.739Z,431.48
2019-01-13T03:55:00.759Z,430.83
2019-01-13T03:56:00.720Z,431.13
2019-01-13T03:57:00.714Z,431.70
2019-01-13T03:58:00.717Z,430.14
2019-01-13T03:59:00.690Z,431.62
2019-01-13T04:00:00.699Z,430.90
2019-01-13T04:01:00.677Z,432.22
2019-01-13T04:02:00.661Z,430.88
2019-01-13T04:03:00.647Z,431.59
2019-01-13T04:04:00.641Z,431.48
2019-01-13T04:05:00.628Z,431.20
2019-01-13T04:06:00.614Z,431.80
2019-01-13T04:07:00.611Z,431.62
2019-01-13T04:08:00.595Z,430.80
2019-01-13T04:09:00.594Z,431.60
2019-01-13T04:10:00.575Z,431.81
2019-01-13T04:11:00.564Z,431.35
2019-01-13T04:12:00.554Z,431.55
2019-01-13T04:13:00.546Z,431.13
2019-01-13T04:14:00.536Z,431.15
2019-01-13T04:15:00.529Z,431.02
2019-01-13T04:16:00.517Z,430.10
2019-01-13T04:17:00.517Z,430.55
2019-01-13T04:18:00.490Z,431.42
2019-01-13T04:19:00.489Z,430.89
2019-01-13T04:20:00.466Z,430.55
2019-01-13T04:21:00.462Z,430.86
2019-01-13T04:22:00.983Z,431.74
2019-01-13T04:23:00.451Z,431.63
2019-01-13T04:24:00.440Z,431.27
2019-01-13T04:25:00.419Z,431.27
2019-01-13T04:26:00.405Z,431.35
2019-01-13T04:27:00.396Z,431.95
2019-01-13T04:28:00.388Z,430.71
2019-01-13T04:29:00.382Z,430.87
2019-01-13T04:30:00.375Z,431.40
2019-01-13T04:31:00.367Z,431.49
2019-01-13T04:32:00.347Z,431.21
2019-01-13T04:33:00.340Z,431.49
2019-01-13T04:34:00.322Z,431.59
2019-01-13T04:35:00.314Z,431.56
2019-01-13T04:36:00.304Z,430.59
2019-01-13T04:37:00.296Z,431.91
2019-01-13T04:38:00.286Z,431.33
2019-01-13T04:39:00.283Z,431.07
2019-01-13T04:40:00.261Z,430.90
2019-01-13T04:41:00.250Z,431.27
2019-01-13T04:42:00.242Z,431.41
2019-01-13T04:43:00.242Z,431.93
2019-01-13T04:44:00.223Z,431.20
2019-01-13T04:45:00.229Z,431.55
2019-01-13T04:46:00.200Z,431.78
2019-01-13T04:47:00.192Z,432.23
2019-01-13T04:48:00.185Z,430.57
2019-01-13T04:49:00.170Z,430.61
2019-01-13T04:50:00.245Z,430.75
2019-01-13T04:51:00.141Z,430.68
2019-01-13T04:52:00.138Z,430.06
2019-01-13T04:53:00.135Z,431.37
2019-01-13T04:54:00.120Z,431.19
2019-01-13T04:55:00.179Z,431.15
2019-01-13T04:56:00.099Z,432.04
2019-01-13T04:57:00.081Z,430.90
2019-01-13T04:58:00.069Z,431.05
2019-01-13T04:59:00.061Z,431.20
2019-01-13T05:00:00.315Z,431.75
2019-01-13T05:01:00.041Z,430.48
2019-01-13T05:02:00.039Z,432.06
2019-01-13T05:03:00.031Z,431.68
2019-01-13T05:04:00.006Z,431.53
2019-01-13T05:05:00.024Z,432.34
2019-01-13T05:05:59.991Z,432.36
2019-01-13T05:06:59.978Z,431.65
2019-01-13T05:07:59.968Z,430.55
2019-01-13T05:08:59.964Z,431.00
2019-01-13T05:09:59.948Z,430.82
2019-01-13T05:10:59.932Z,430.30
2019-01-13T05:11:59.926Z,430.65
2019-01-13T05:12:59.920Z,432.61
2019-01-13T05:13:59.905Z,431.71
2019-01-13T05:14:59.890Z,431.49
2019-01-13T05:15:59.881Z,431.59
2019-01-13T05:16:59.869Z,431.08
2019-01-13T05:17:59.863Z,431.67
2019-01-13T05:18:59.850Z,431.58
2019-01-13T05:19:59.837Z,431.50
2019-01-13T05:20:59.834Z,432.01
2019-01-13T05:21:59.823Z,430.41
2019-01-13T05:22:59.816Z,431.04
2019-01-13T05:23:59.811Z,430.51
2019-01-13T05:24:59.790Z,432.08
2019-01-13T05:25:59.813Z,431.44
2019-01-13T05:26:59.772Z,430.83
2019-01-13T05:27:59.763Z,430.88
2019-01-13T05:29:00.491Z,431.16
2019-01-13T05:29:59.737Z,430.34
2019-01-13T05:30:59.732Z,431.11
2019-01-13T05:31:59.719Z,431.41
2019-01-13T05:32:59.702Z,431.04
2019-01-13T05:33:59.698Z,430.51
2019-01-13T05:34:59.697Z,430.50
2019-01-13T05:35:59.670Z,431.09
2019-01-13T05:36:59.664Z,429.98
2019-01-13T05:37:59.660Z,430.01
2019-01-13T05:38:59.649Z,430.86
2019-01-13T05:39:59.626Z,430.30
2019-01-13T05:40:59.628Z,430.50
2019-01-13T05:41:59.619Z,430.84
2019-01-13T05:42:59.636Z,430.17
2019-01-13T05:43:59.619Z,430.29
2019-01-13T05:44:59.582Z,431.18
2019-01-13T05:45:59.567Z,430.26
2019-01-13T05:46:59.563Z,430.01
2019-01-13T05:47:59.569Z,429.62
2019-01-13T05:48:59.541Z,429.76
2019-01-13T05:49:59.520Z,429.67
2019-01-13T05:50:59.524Z,429.86
2019-01-13T05:51:59.506Z,430.46
2019-01-13T05:52:59.492Z,429.95
2019-01-13T05:53:59.487Z,429.61
2019-01-13T05:54:59.480Z,429.75
2019-01-13T05:55:59.462Z,429.24
2019-01-13T05:56:59.455Z,429.11
2019-01-13T05:57:59.449Z,430.49
2019-01-13T05:58:59.433Z,429.38
2019-01-13T05:59:59.427Z,429.18
2019-01-13T06:00:59.407Z,429.24
2019-01-13T06:01:59.397Z,429.58
2019-01-13T06:02:59.410Z,429.21
2019-01-13T06:03:59.378Z,429.50
2019-01-13T06:04:59.368Z,428.67
2019-01-13T06:05:59.377Z,428.75
2019-01-13T06:06:59.345Z,429.60
2019-01-13T06:07:59.346Z,428.91
2019-01-13T06:08:59.326Z,429.50
2019-01-13T06:09:59.317Z,428.81
2019-01-13T06:10:59.319Z,429.20
2019-01-13T06:11:59.287Z,428.18
2019-01-13T06:12:59.284Z,429.26
2019-01-13T06:13:59.273Z,428.84
2019-01-13T06:14:59.287Z,429.24
2019-01-13T06:15:59.261Z,428.20
2019-01-13T06:16:59.263Z,428.63
2019-01-13T06:17:59.231Z,428.48
2019-01-13T06:18:59.219Z,430.02
2019-01-13T06:19:59.209Z,428.09
2019-01-13T06:20:59.199Z,428.76
2019-01-13T06:21:59.188Z,428.30
2019-01-13T06:22:59.195Z,429.42
2019-01-13T06:23:59.170Z,428.26
2019-01-13T06:24:59.162Z,429.49
2019-01-13T06:25:59.145Z,429.21
2019-01-13T06:26:59.139Z,428.53
2019-01-13T06:27:59.182Z,428.36
2019-01-13T06:28:59.115Z,427.80
2019-01-13T06:29:59.117Z,428.85
2019-01-13T06:30:59.106Z,429.41
2019-01-13T06:31:59.095Z,428.55
2019-01-13T06:32:59.072Z,429.33
2019-01-13T06:33:59.094Z,428.64
2019-01-13T06:34:59.060Z,428.44
2019-01-13T06:35:59.040Z,429.20
2019-01-13T06:36:59.044Z,429.38
2019-01-13T06:37:59.020Z,428.80
2019-01-13T06:38:59.041Z,427.87
2019-01-13T06:39:58.999Z,428.83
2019-01-13T06:40:59.012Z,428.85
2019-01-13T06:41:58.975Z,428.84
2019-01-13T06:42:58.987Z,428.54
2019-01-13T06:43:58.954Z,428.87
2019-01-13T06:44:58.954Z,429.75
2019-01-13T06:45:58.934Z,428.37
2019-01-13T06:46:58.948Z,428.91
2019-01-13T06:47:58.911Z,427.63
2019-01-13T06:48:58.902Z,428.44
2019-01-13T06:49:58.928Z,429.43
2019-01-13T06:50:58.891Z,427.91
2019-01-13T06:51:58.876Z,428.34
2019-01-13T06:52:58.864Z,429.62
2019-01-13T06:53:58.852Z,429.17
2019-01-13T06:54:58.843Z,428.92
2019-01-13T06:55:58.847Z,428.92
2019-01-13T06:56:58.830Z,428.90
2019-01-13T06:57:58.856Z,428.92
2019-01-13T06:58:58.798Z,428.51
2019-01-13T06:59:58.797Z,429.14
2019-01-13T07:00:58.777Z,428.36
2019-01-13T07:02:03.340Z,428.66
2019-01-13T07:02:58.766Z,429.06
2019-01-13T07:03:58.755Z,428.96
2019-01-13T07:04:58.736Z,429.07
2019-01-13T07:05:58.730Z,428.19
2019-01-13T07:06:58.724Z,428.75
2019-01-13T07:07:58.713Z,428.50
2019-01-13T07:08:58.693Z,429.25
2019-01-13T07:09:58.697Z,428.02
2019-01-13T07:10:58.677Z,428.17
2019-01-13T07:11:58.663Z,429.65
2019-01-13T07:12:58.659Z,428.64
2019-01-13T07:13:58.653Z,428.39
2019-01-13T07:14:58.633Z,428.71
2019-01-13T07:15:58.616Z,428.28
2019-01-13T07:16:58.610Z,427.89
2019-01-13T07:17:58.595Z,428.70
2019-01-13T07:18:58.588Z,428.94
2019-01-13T07:19:58.583Z,428.24
2019-01-13T07:20:58.566Z,428.95
2019-01-13T07:21:58.554Z,429.82
2019-01-13T07:22:58.545Z,430.05
2019-01-13T07:23:58.533Z,428.76
2019-01-13T07:24:58.523Z,428.23
2019-01-13T07:25:58.517Z,428.64
2019-01-13T07:26:58.533Z,428.02
2019-01-13T07:27:58.527Z,428.60
2019-01-13T07:28:58.485Z,428.12
2019-01-13T07:29:58.483Z,428.55
2019-01-13T07:30:58.458Z,428.58
2019-01-13T07:31:58.460Z,428.69
2019-01-13T07:32:58.451Z,428.69
2019-01-13T07:33:58.427Z,429.95
2019-01-13T07:34:58.415Z,428.86
2019-01-13T07:35:58.413Z,428.86
2019-01-13T07:36:58.404Z,429.55
2019-01-13T07:37:58.389Z,428.96
2019-01-13T07:38:58.388Z,429.53
2019-01-13T07:39:58.370Z,428.69
2019-01-13T07:40:58.354Z,429.41
2019-01-13T07:41:58.348Z,428.69
2019-01-13T07:42:58.343Z,428.43
2019-01-13T07:43:58.323Z,429.54
2019-01-13T07:44:58.310Z,429.44
2019-01-13T07:45:58.298Z,429.75
2019-01-13T07:46:58.292Z,428.59
2019-01-13T07:47:58.277Z,428.81
2019-01-13T07:48:58.270Z,428.92
2019-01-13T07:49:58.261Z,429.58
2019-01-13T07:50:58.261Z,429.94
2019-01-13T07:51:58.235Z,428.97
2019-01-13T07:52:58.230Z,429.60
2019-01-13T07:53:58.230Z,428.65
2019-01-13T07:54:58.227Z,428.88
2019-01-13T07:55:58.194Z,429.20
2019-01-13T07:56:58.184Z,428.42
2019-01-13T07:57:58.176Z,430.50
2019-01-13T07:58:58.166Z,428.86
2019-01-13T07:59:58.185Z,428.57
2019-01-13T08:00:58.146Z,428.60
2019-01-13T08:01:58.133Z,428.60
2019-01-13T08:02:58.152Z,429.54
2019-01-13T08:03:58.113Z,428.82
2019-01-13T08:04:58.103Z,429.40
2019-01-13T08:05:58.121Z,429.66
2019-01-13T08:06:58.080Z,429.44
2019-01-13T08:07:58.064Z,428.95
2019-01-13T08:08:58.060Z,429.34
2019-01-13T08:09:58.052Z,428.52
2019-01-13T08:10:58.034Z,428.66
2019-01-13T08:11:58.038Z,429.50
2019-01-13T08:12:58.028Z,429.02
2019-01-13T08:13:58.003Z,429.31
2019-01-13T08:14:57.995Z,428.95
2019-01-13T08:15:58.000Z,428.79
2019-01-13T08:16:57.979Z,429.54
2019-01-13T08:17:57.964Z,429.23
2019-01-13T08:18:57.955Z,429.38
2019-01-13T08:19:57.948Z,428.95
2019-01-13T08:20:57.937Z,429.00
2019-01-13T08:21:57.929Z,429.51
2019-01-13T08:22:57.921Z,428.95
2019-01-13T08:23:57.902Z,428.67
2019-01-13T08:24:57.912Z,429.21
2019-01-13T08:25:57.882Z,429.44
2019-01-13T08:26:57.867Z,429.51
2019-01-13T08:27:57.868Z,429.16
2019-01-13T08:28:57.849Z,429.75
2019-01-13T08:29:57.850Z,428.97
2019-01-13T08:30:57.848Z,428.77
2019-01-13T08:31:57.815Z,429.24
2019-01-13T08:32:57.803Z,428.19
2019-01-13T08:33:57.807Z,429.06
2019-01-13T08:34:57.784Z,429.37
2019-01-13T08:35:57.780Z,429.48
2019-01-13T08:36:57.766Z,428.99
2019-01-13T08:37:57.758Z,429.41
2019-01-13T08:38:57.753Z,428.29
2019-01-13T08:39:57.732Z,429.74
2019-01-13T08:40:57.724Z,428.61
2019-01-13T08:41:57.741Z,429.66
2019-01-13T08:42:57.741Z,428.80
2019-01-13T08:43:57.731Z,428.05
2019-01-13T08:44:57.694Z,427.90
2019-01-13T08:45:57.679Z,428.95
2019-01-13T08:46:57.668Z,429.06
2019-01-13T08:47:57.656Z,429.70
2019-01-13T08:48:57.650Z,429.36
2019-01-13T08:49:57.626Z,429.51
2019-01-13T08:50:57.617Z,429.68
2019-01-13T08:51:57.608Z,428.86
2019-01-13T08:52:57.595Z,428.81
2019-01-13T08:53:57.588Z,429.85
2019-01-13T08:54:57.573Z,428.90
2019-01-13T08:55:57.561Z,428.89
2019-01-13T08:56:57.555Z,429.05
2019-01-13T08:57:57.552Z,429.67
2019-01-13T08:58:57.544Z,429.43
2019-01-13T08:59:57.542Z,428.63
2019-01-13T09:00:57.507Z,428.73
2019-01-13T09:01:57.509Z,429.70
2019-01-13T09:02:57.500Z,429.28
2019-01-13T09:03:57.481Z,428.94
2019-01-13T09:04:57.473Z,429.81
2019-01-13T09:05:57.472Z,428.91
2019-01-13T09:06:57.454Z,429.16
2019-01-13T09:07:57.433Z,428.91
2019-01-13T09:08:57.435Z,429.12
2019-01-13T09:09:57.417Z,429.01
2019-01-13T09:10:57.416Z,428.90
2019-01-13T09:11:57.409Z,429.27
2019-01-13T09:12:57.386Z,429.39
2019-01-13T09:13:58.059Z,429.86
2019-01-13T09:14:57.366Z,429.32
2019-01-13T09:15:57.356Z,430.21
2019-01-13T09:16:57.361Z,429.57
2019-01-13T09:17:57.347Z,428.64
2019-01-13T09:18:57.324Z,428.71
2019-01-13T09:19:57.313Z,428.58
2019-01-13T09:20:57.302Z,428.56
2019-01-13T09:21:57.300Z,430.40
2019-01-13T09:22:57.307Z,428.59
2019-01-13T09:23:57.270Z,429.27
2019-01-13T09:24:57.260Z,429.27
2019-01-13T09:25:57.257Z,428.44
2019-01-13T09:26:57.238Z,428.39
2019-01-13T09:27:57.234Z,428.66
2019-01-13T09:28:57.223Z,429.51
2019-01-13T09:29:57.219Z,428.79
2019-01-13T09:30:57.201Z,429.58
2019-01-13T09:31:57.262Z,428.92
2019-01-13T09:32:57.183Z,429.08
2019-01-13T09:33:57.177Z,429.11
2019-01-13T09:34:57.165Z,429.36
2019-01-13T09:35:57.155Z,430.52
2019-01-13T09:36:57.156Z,428.58
2019-01-13T09:37:57.144Z,429.12
2019-01-13T09:38:57.114Z,428.44
2019-01-13T09:39:57.121Z,429.88
2019-01-13T09:40:57.111Z,430.46
2019-01-13T09:41:57.080Z,428.97
2019-01-13T09:42:57.068Z,429.14
2019-01-13T09:43:57.081Z,428.72
2019-01-13T09:44:57.057Z,428.37
2019-01-13T09:45:57.034Z,428.51
2019-01-13T09:46:57.054Z,429.37
2019-01-13T09:47:57.024Z,428.92
2019-01-13T09:48:57.013Z,429.56
2019-01-13T09:49:57.050Z,428.16
2019-01-13T09:50:57.017Z,429.26
2019-01-13T09:51:56.984Z,428.84
2019-01-13T09:52:56.986Z,429.24
2019-01-13T09:53:57.583Z,428.87
2019-01-13T09:54:56.958Z,429.30
2019-01-13T09:55:56.978Z,429.68
2019-01-13T09:56:56.934Z,429.27
2019-01-13T09:57:56.920Z,429.36
2019-01-13T09:58:56.922Z,429.08
2019-01-13T09:59:56.905Z,429.27
2019-01-13T10:00:57.640Z,428.71
2019-01-13T10:01:56.880Z,429.23
2019-01-13T10:02:56.874Z,428.52
2019-01-13T10:03:56.856Z,428.25
2019-01-13T10:04:59.637Z,430.08
2019-01-13T10:05:56.830Z,429.70
2019-01-13T10:06:56.832Z,429.58
2019-01-13T10:07:56.821Z,429.19
2019-01-13T10:08:56.810Z,429.29
2019-01-13T10:09:56.799Z,428.72
2019-01-13T10:10:56.842Z,428.91
2019-01-13T10:11:56.769Z,430.04
2019-01-13T10:12:56.764Z,428.46
2019-01-13T10:13:56.751Z,429.40
2019-01-13T10:14:56.742Z,428.19
2019-01-13T10:15:56.728Z,429.06
2019-01-13T10:16:56.719Z,430.27
2019-01-13T10:17:56.707Z,428.59
2019-01-13T10:18:57.635Z,428.89
2019-01-13T10:19:56.743Z,429.25
2019-01-13T10:20:56.699Z,429.08
2019-01-13T10:21:56.664Z,429.49
2019-01-13T10:22:56.667Z,428.63
2019-01-13T10:23:56.643Z,429.84
2019-01-13T10:24:56.638Z,430.60
2019-01-13T10:25:56.630Z,429.53
2019-01-13T10:26:56.623Z,428.96
2019-01-13T10:27:56.605Z,429.58
2019-01-13T10:28:56.590Z,428.88
2019-01-13T10:29:56.583Z,429.40
2019-01-13T10:31:03.012Z,428.79
2019-01-13T10:31:57.568Z,429.72
2019-01-13T10:32:56.629Z,429.39
2019-01-13T10:33:56.537Z,428.69
2019-01-13T10:34:56.529Z,428.73
2019-01-13T10:35:56.530Z,429.00
2019-01-13T10:36:56.516Z,428.38
2019-01-13T10:37:56.506Z,429.44
2019-01-13T10:38:56.502Z,429.36
2019-01-13T10:39:56.475Z,428.92
2019-01-13T10:40:56.469Z,429.57
2019-01-13T10:41:56.454Z,428.91
2019-01-13T10:42:56.445Z,428.74
2019-01-13T10:43:56.456Z,429.02
2019-01-13T10:44:56.427Z,428.20
2019-01-13T10:45:56.418Z,428.44
2019-01-13T10:46:56.416Z,428.69
2019-01-13T10:47:56.394Z,429.67
2019-01-13T10:48:56.386Z,429.61
2019-01-13T10:49:56.376Z,428.29
2019-01-13T10:50:56.395Z,429.84
2019-01-13T10:51:56.354Z,429.71
2019-01-13T10:52:56.340Z,428.25
2019-01-13T10:53:56.336Z,429.96
2019-01-13T10:54:56.318Z,428.73
2019-01-13T10:55:56.332Z,429.80
2019-01-13T10:56:56.309Z,429.25
2019-01-13T10:57:56.285Z,428.90
2019-01-13T10:58:56.277Z,430.64
2019-01-13T10:59:56.267Z,429.99
2019-01-13T11:00:56.265Z,429.22
2019-01-13T11:01:56.247Z,428.86
2019-01-13T11:03:01.994Z,429.48
2019-01-13T11:03:57.234Z,429.31
2019-01-13T11:04:56.211Z,429.63
2019-01-13T11:05:56.206Z,429.95
2019-01-13T11:06:56.193Z,429.15
2019-01-13T11:07:56.195Z,430.48
2019-01-13T11:08:56.176Z,429.34
2019-01-13T11:09:56.199Z,429.45
2019-01-13T11:10:56.149Z,429.39
2019-01-13T11:11:56.167Z,429.26
2019-01-13T11:12:56.131Z,430.02
2019-01-13T11:13:57.698Z,429.60
2019-01-13T11:14:56.108Z,429.29
2019-01-13T11:15:56.098Z,429.65
2019-01-13T11:16:56.094Z,429.60
2019-01-13T11:17:56.128Z,430.48
2019-01-13T11:18:57.445Z,429.60
2019-01-13T11:19:56.083Z,429.95
2019-01-13T11:20:56.058Z,428.73
2019-01-13T11:21:56.110Z,429.73
2019-01-13T11:22:56.029Z,429.92
2019-01-13T11:23:56.019Z,428.93
2019-01-13T11:24:56.008Z,429.86
2019-01-13T11:25:56.004Z,429.74
2019-01-13T11:26:55.977Z,429.90
2019-01-13T11:27:55.970Z,429.80
2019-01-13T11:28:55.968Z,429.42
2019-01-13T11:29:55.950Z,430.42
2019-01-13T11:30:55.952Z,429.52
2019-01-13T11:31:55.941Z,430.25
2019-01-13T11:32:55.967Z,429.88
2019-01-13T11:33:57.743Z,429.39
2019-01-13T11:34:55.898Z,430.19
2019-01-13T11:35:55.891Z,430.13
2019-01-13T11:36:55.886Z,429.62
2019-01-13T11:37:55.874Z,429.88
2019-01-13T11:38:55.863Z,430.22
2019-01-13T11:39:55.842Z,430.26
2019-01-13T11:40:55.899Z,428.91
2019-01-13T11:41:55.827Z,430.15
2019-01-13T11:42:55.843Z,429.20
2019-01-13T11:43:55.806Z,429.79
2019-01-13T11:44:55.806Z,427.97
2019-01-13T11:45:55.783Z,429.53
2019-01-13T11:46:55.803Z,430.09
2019-01-13T11:47:55.804Z,429.59
2019-01-13T11:48:55.753Z,429.87
2019-01-13T11:49:55.757Z,429.43
2019-01-13T11:50:55.743Z,428.57
2019-01-13T11:51:55.728Z,429.52
2019-01-13T11:52:55.709Z,430.53
2019-01-13T11:53:55.701Z,430.54
2019-01-13T11:54:55.701Z,430.18
2019-01-13T11:55:57.274Z,430.48
2019-01-13T11:56:55.669Z,430.12
2019-01-13T11:57:55.674Z,429.79
2019-01-13T11:58:55.652Z,429.34
2019-01-13T11:59:55.639Z,430.86
2019-01-13T12:00:55.631Z,430.00
2019-01-13T12:01:55.615Z,430.08
2019-01-13T12:02:55.615Z,429.86
2019-01-13T12:03:55.603Z,429.40
2019-01-13T12:04:55.591Z,430.25
2019-01-13T12:05:55.577Z,429.13
2019-01-13T12:06:55.567Z,430.33
2019-01-13T12:07:55.558Z,430.04
2019-01-13T12:08:55.542Z,429.19
2019-01-13T12:09:55.529Z,430.05
2019-01-13T12:10:55.525Z,429.47
2019-01-13T12:11:55.513Z,430.14
2019-01-13T12:12:55.498Z,429.29
2019-01-13T12:13:55.567Z,429.72
2019-01-13T12:14:55.479Z,429.98
2019-01-13T12:15:56.283Z,430.56
2019-01-13T12:16:55.473Z,429.79
2019-01-13T12:17:55.457Z,430.24
2019-01-13T12:18:55.472Z,430.21
2019-01-13T12:19:55.439Z,429.42
2019-01-13T12:20:55.479Z,430.84
2019-01-13T12:21:56.084Z,431.24
2019-01-13T12:22:55.455Z,431.42
2019-01-13T12:23:55.449Z,429.80
2019-01-13T12:24:55.411Z,430.76
2019-01-13T12:25:55.363Z,430.84
2019-01-13T12:26:55.358Z,430.99
2019-01-13T12:27:55.355Z,430.22